sensor_id;sensor_type;location;lat;lon;timestamp;P1;durP1;ratioP1;P2;durP2;ratioP2
45338;SDS011;31071;51.478;5.710;2023-09-07T00:00:46;21.38;;;17.75;;
45338;SDS011;31071;51.478;5.710;2023-09-07T00:03:12;23.02;;;18.33;;
45338;SDS011;31071;51.478;5.710;2023-09-07T00:05:38;23.88;;;18.33;;
45338;SDS011;31071;51.478;5.710;2023-09-07T00:08:04;24.98;;;18.85;;
45338;SDS011;31071;51.478;5.710;2023-09-07T00:10:29;22.75;;;18.77;;
45338;SDS011;31071;51.478;5.710;2023-09-07T00:12:55;26.65;;;19.83;;
45338;SDS011;31071;51.478;5.710;2023-09-07T00:15:21;25.48;;;17.90;;
45338;SDS011;31071;51.478;5.710;2023-09-07T00:17:46;26.90;;;17.98;;
45338;SDS011;31071;51.478;5.710;2023-09-07T00:20:12;25.92;;;18.90;;
45338;SDS011;31071;51.478;5.710;2023-09-07T00:22:40;23.23;;;18.83;;
45338;SDS011;31071;51.478;5.710;2023-09-07T00:25:06;24.30;;;18.45;;
45338;SDS011;31071;51.478;5.710;2023-09-07T00:27:32;29.25;;;19.73;;
45338;SDS011;31071;51.478;5.710;2023-09-07T00:29:59;22.13;;;18.75;;
45338;SDS011;31071;51.478;5.710;2023-09-07T00:32:24;28.38;;;20.02;;
45338;SDS011;31071;51.478;5.710;2023-09-07T00:34:50;26.05;;;19.30;;
45338;SDS011;31071;51.478;5.710;2023-09-07T00:37:15;22.95;;;19.77;;
45338;SDS011;31071;51.478;5.710;2023-09-07T00:39:41;23.25;;;20.75;;
45338;SDS011;31071;51.478;5.710;2023-09-07T00:42:06;22.65;;;19.13;;
45338;SDS011;31071;51.478;5.710;2023-09-07T00:44:32;26.85;;;21.95;;
45338;SDS011;31071;51.478;5.710;2023-09-07T00:46:57;23.35;;;20.40;;
45338;SDS011;31071;51.478;5.710;2023-09-07T00:49:23;27.33;;;21.38;;
45338;SDS011;31071;51.478;5.710;2023-09-07T00:51:50;29.08;;;20.50;;
45338;SDS011;31071;51.478;5.710;2023-09-07T00:54:17;23.15;;;20.75;;
45338;SDS011;31071;51.478;5.710;2023-09-07T00:56:43;24.95;;;20.83;;
45338;SDS011;31071;51.478;5.710;2023-09-07T00:59:09;25.90;;;21.05;;
45338;SDS011;31071;51.478;5.710;2023-09-07T01:01:36;23.63;;;19.55;;
45338;SDS011;31071;51.478;5.710;2023-09-07T01:04:01;25.38;;;20.35;;
45338;SDS011;31071;51.478;5.710;2023-09-07T01:06:45;24.58;;;20.55;;
45338;SDS011;31071;51.478;5.710;2023-09-07T01:09:19;22.95;;;19.92;;
45338;SDS011;31071;51.478;5.710;2023-09-07T01:14:15;25.88;;;19.48;;
45338;SDS011;31071;51.478;5.710;2023-09-07T01:16:40;24.15;;;20.33;;
45338;SDS011;31071;51.478;5.710;2023-09-07T01:19:06;23.52;;;20.10;;
45338;SDS011;31071;51.478;5.710;2023-09-07T01:21:35;26.02;;;20.58;;
45338;SDS011;31071;51.478;5.710;2023-09-07T01:24:09;25.15;;;20.90;;
45338;SDS011;31071;51.478;5.710;2023-09-07T01:26:36;28.85;;;21.63;;
45338;SDS011;31071;51.478;5.710;2023-09-07T01:29:05;29.73;;;21.35;;
45338;SDS011;31071;51.478;5.710;2023-09-07T01:31:35;29.52;;;21.90;;
45338;SDS011;31071;51.478;5.710;2023-09-07T01:34:01;27.55;;;22.52;;
45338;SDS011;31071;51.478;5.710;2023-09-07T01:36:27;28.27;;;22.38;;
45338;SDS011;31071;51.478;5.710;2023-09-07T01:38:52;30.58;;;21.67;;
45338;SDS011;31071;51.478;5.710;2023-09-07T01:41:18;27.02;;;21.38;;
45338;SDS011;31071;51.478;5.710;2023-09-07T01:43:43;28.92;;;21.88;;
45338;SDS011;31071;51.478;5.710;2023-09-07T01:46:09;27.85;;;21.17;;
45338;SDS011;31071;51.478;5.710;2023-09-07T01:48:34;29.00;;;22.77;;
45338;SDS011;31071;51.478;5.710;2023-09-07T01:51:01;25.65;;;22.33;;
45338;SDS011;31071;51.478;5.710;2023-09-07T01:53:26;28.15;;;21.60;;
45338;SDS011;31071;51.478;5.710;2023-09-07T01:55:55;26.42;;;21.77;;
45338;SDS011;31071;51.478;5.710;2023-09-07T01:58:21;27.55;;;22.15;;
45338;SDS011;31071;51.478;5.710;2023-09-07T02:00:48;27.92;;;22.92;;
45338;SDS011;31071;51.478;5.710;2023-09-07T02:03:14;31.23;;;23.23;;
45338;SDS011;31071;51.478;5.710;2023-09-07T02:05:40;27.95;;;22.15;;
45338;SDS011;31071;51.478;5.710;2023-09-07T02:08:05;25.02;;;21.50;;
45338;SDS011;31071;51.478;5.710;2023-09-07T02:10:31;26.92;;;21.85;;
45338;SDS011;31071;51.478;5.710;2023-09-07T02:12:56;27.27;;;22.00;;
45338;SDS011;31071;51.478;5.710;2023-09-07T02:15:23;27.23;;;22.20;;
45338;SDS011;31071;51.478;5.710;2023-09-07T02:17:48;23.42;;;20.90;;
45338;SDS011;31071;51.478;5.710;2023-09-07T02:20:14;28.00;;;22.75;;
45338;SDS011;31071;51.478;5.710;2023-09-07T02:22:40;28.73;;;21.63;;
45338;SDS011;31071;51.478;5.710;2023-09-07T02:25:05;24.33;;;21.25;;
45338;SDS011;31071;51.478;5.710;2023-09-07T02:27:32;30.10;;;21.52;;
45338;SDS011;31071;51.478;5.710;2023-09-07T02:29:58;26.02;;;22.20;;
45338;SDS011;31071;51.478;5.710;2023-09-07T02:32:23;28.52;;;21.70;;
45338;SDS011;31071;51.478;5.710;2023-09-07T02:34:49;25.67;;;21.48;;
45338;SDS011;31071;51.478;5.710;2023-09-07T02:37:15;24.83;;;20.75;;
45338;SDS011;31071;51.478;5.710;2023-09-07T02:39:41;25.88;;;20.35;;
45338;SDS011;31071;51.478;5.710;2023-09-07T02:42:07;25.50;;;21.10;;
45338;SDS011;31071;51.478;5.710;2023-09-07T02:44:33;26.17;;;20.55;;
45338;SDS011;31071;51.478;5.710;2023-09-07T02:46:58;25.77;;;21.80;;
45338;SDS011;31071;51.478;5.710;2023-09-07T02:49:24;26.40;;;21.38;;
45338;SDS011;31071;51.478;5.710;2023-09-07T02:51:49;26.52;;;22.13;;
45338;SDS011;31071;51.478;5.710;2023-09-07T02:54:15;26.90;;;21.65;;
45338;SDS011;31071;51.478;5.710;2023-09-07T02:56:40;28.15;;;21.40;;
45338;SDS011;31071;51.478;5.710;2023-09-07T02:59:06;28.98;;;22.58;;
45338;SDS011;31071;51.478;5.710;2023-09-07T03:01:31;28.00;;;21.80;;
45338;SDS011;31071;51.478;5.710;2023-09-07T03:03:57;30.25;;;21.85;;
45338;SDS011;31071;51.478;5.710;2023-09-07T03:06:23;27.80;;;20.30;;
45338;SDS011;31071;51.478;5.710;2023-09-07T03:08:48;25.42;;;20.00;;
45338;SDS011;31071;51.478;5.710;2023-09-07T03:11:14;27.25;;;21.35;;
45338;SDS011;31071;51.478;5.710;2023-09-07T03:13:39;30.75;;;21.33;;
45338;SDS011;31071;51.478;5.710;2023-09-07T03:16:05;25.35;;;22.25;;
45338;SDS011;31071;51.478;5.710;2023-09-07T03:18:31;25.58;;;20.38;;
45338;SDS011;31071;51.478;5.710;2023-09-07T03:20:58;23.58;;;20.02;;
45338;SDS011;31071;51.478;5.710;2023-09-07T03:23:26;24.65;;;20.10;;
45338;SDS011;31071;51.478;5.710;2023-09-07T03:25:52;26.52;;;20.70;;
45338;SDS011;31071;51.478;5.710;2023-09-07T03:28:18;26.80;;;20.75;;
45338;SDS011;31071;51.478;5.710;2023-09-07T03:30:43;27.27;;;21.00;;
45338;SDS011;31071;51.478;5.710;2023-09-07T03:33:09;25.35;;;20.00;;
45338;SDS011;31071;51.478;5.710;2023-09-07T03:35:35;24.70;;;19.60;;
45338;SDS011;31071;51.478;5.710;2023-09-07T03:38:00;23.52;;;19.08;;
45338;SDS011;31071;51.478;5.710;2023-09-07T03:40:26;26.77;;;19.73;;
45338;SDS011;31071;51.478;5.710;2023-09-07T03:42:51;20.13;;;17.95;;
45338;SDS011;31071;51.478;5.710;2023-09-07T03:45:17;24.00;;;18.58;;
45338;SDS011;31071;51.478;5.710;2023-09-07T03:47:42;25.70;;;18.17;;
45338;SDS011;31071;51.478;5.710;2023-09-07T03:50:09;23.00;;;18.30;;
45338;SDS011;31071;51.478;5.710;2023-09-07T03:52:35;23.20;;;18.42;;
45338;SDS011;31071;51.478;5.710;2023-09-07T03:55:00;21.02;;;17.05;;
45338;SDS011;31071;51.478;5.710;2023-09-07T03:57:26;23.27;;;17.63;;
45338;SDS011;31071;51.478;5.710;2023-09-07T03:59:52;28.90;;;17.67;;
45338;SDS011;31071;51.478;5.710;2023-09-07T04:02:20;19.45;;;16.90;;
45338;SDS011;31071;51.478;5.710;2023-09-07T04:04:49;22.33;;;17.60;;
45338;SDS011;31071;51.478;5.710;2023-09-07T04:07:16;23.90;;;17.42;;
45338;SDS011;31071;51.478;5.710;2023-09-07T04:09:42;19.00;;;16.92;;
45338;SDS011;31071;51.478;5.710;2023-09-07T04:12:08;21.75;;;17.50;;
45338;SDS011;31071;51.478;5.710;2023-09-07T04:14:34;21.20;;;16.10;;
45338;SDS011;31071;51.478;5.710;2023-09-07T04:17:00;21.60;;;16.40;;
45338;SDS011;31071;51.478;5.710;2023-09-07T04:19:26;20.42;;;16.20;;
45338;SDS011;31071;51.478;5.710;2023-09-07T04:21:51;20.83;;;16.77;;
45338;SDS011;31071;51.478;5.710;2023-09-07T04:24:17;20.55;;;15.65;;
45338;SDS011;31071;51.478;5.710;2023-09-07T04:26:42;20.35;;;16.20;;
45338;SDS011;31071;51.478;5.710;2023-09-07T04:29:08;19.95;;;15.48;;
45338;SDS011;31071;51.478;5.710;2023-09-07T04:31:34;18.23;;;16.15;;
45338;SDS011;31071;51.478;5.710;2023-09-07T04:34:00;18.73;;;16.00;;
45338;SDS011;31071;51.478;5.710;2023-09-07T04:36:25;18.52;;;15.50;;
45338;SDS011;31071;51.478;5.710;2023-09-07T04:38:51;19.33;;;15.30;;
45338;SDS011;31071;51.478;5.710;2023-09-07T04:41:16;19.85;;;15.65;;
45338;SDS011;31071;51.478;5.710;2023-09-07T04:43:42;19.55;;;15.07;;
45338;SDS011;31071;51.478;5.710;2023-09-07T04:46:09;19.38;;;16.20;;
45338;SDS011;31071;51.478;5.710;2023-09-07T04:48:36;18.17;;;15.00;;
45338;SDS011;31071;51.478;5.710;2023-09-07T04:51:02;17.23;;;14.65;;
45338;SDS011;31071;51.478;5.710;2023-09-07T04:53:30;21.35;;;16.27;;
45338;SDS011;31071;51.478;5.710;2023-09-07T04:55:56;19.95;;;15.68;;
45338;SDS011;31071;51.478;5.710;2023-09-07T04:58:22;17.50;;;14.25;;
45338;SDS011;31071;51.478;5.710;2023-09-07T05:00:48;21.48;;;14.80;;
45338;SDS011;31071;51.478;5.710;2023-09-07T05:03:14;23.23;;;16.10;;
45338;SDS011;31071;51.478;5.710;2023-09-07T05:05:43;20.52;;;15.23;;
45338;SDS011;31071;51.478;5.710;2023-09-07T05:08:17;18.60;;;14.90;;
45338;SDS011;31071;51.478;5.710;2023-09-07T05:10:45;19.33;;;15.45;;
45338;SDS011;31071;51.478;5.710;2023-09-07T05:13:14;17.90;;;14.88;;
45338;SDS011;31071;51.478;5.710;2023-09-07T05:15:47;22.38;;;15.80;;
45338;SDS011;31071;51.478;5.710;2023-09-07T05:18:14;21.40;;;15.20;;
45338;SDS011;31071;51.478;5.710;2023-09-07T05:20:39;18.33;;;14.82;;
45338;SDS011;31071;51.478;5.710;2023-09-07T05:23:05;20.23;;;14.68;;
45338;SDS011;31071;51.478;5.710;2023-09-07T05:25:31;22.13;;;15.23;;
45338;SDS011;31071;51.478;5.710;2023-09-07T05:27:57;19.38;;;15.13;;
45338;SDS011;31071;51.478;5.710;2023-09-07T05:30:46;21.10;;;14.55;;
45338;SDS011;31071;51.478;5.710;2023-09-07T05:33:13;21.40;;;15.68;;
45338;SDS011;31071;51.478;5.710;2023-09-07T05:35:40;22.98;;;15.55;;
45338;SDS011;31071;51.478;5.710;2023-09-07T05:38:07;20.85;;;14.90;;
45338;SDS011;31071;51.478;5.710;2023-09-07T05:40:37;19.13;;;14.48;;
45338;SDS011;31071;51.478;5.710;2023-09-07T05:43:04;18.73;;;14.43;;
45338;SDS011;31071;51.478;5.710;2023-09-07T05:45:30;23.40;;;15.07;;
45338;SDS011;31071;51.478;5.710;2023-09-07T05:47:57;18.42;;;14.90;;
45338;SDS011;31071;51.478;5.710;2023-09-07T05:50:26;20.05;;;15.70;;
45338;SDS011;31071;51.478;5.710;2023-09-07T05:52:51;21.13;;;15.05;;
45338;SDS011;31071;51.478;5.710;2023-09-07T05:55:17;21.08;;;15.75;;
45338;SDS011;31071;51.478;5.710;2023-09-07T05:57:43;19.27;;;15.52;;
45338;SDS011;31071;51.478;5.710;2023-09-07T06:00:08;20.50;;;16.00;;
45338;SDS011;31071;51.478;5.710;2023-09-07T06:02:34;20.23;;;15.68;;
45338;SDS011;31071;51.478;5.710;2023-09-07T06:05:00;18.00;;;15.85;;
45338;SDS011;31071;51.478;5.710;2023-09-07T06:07:26;18.55;;;15.35;;
45338;SDS011;31071;51.478;5.710;2023-09-07T06:09:52;20.13;;;15.45;;
45338;SDS011;31071;51.478;5.710;2023-09-07T06:12:17;21.58;;;16.85;;
45338;SDS011;31071;51.478;5.710;2023-09-07T06:14:44;17.58;;;15.00;;
45338;SDS011;31071;51.478;5.710;2023-09-07T06:17:11;20.55;;;15.93;;
45338;SDS011;31071;51.478;5.710;2023-09-07T06:19:37;23.30;;;17.05;;
45338;SDS011;31071;51.478;5.710;2023-09-07T06:22:02;20.00;;;15.80;;
45338;SDS011;31071;51.478;5.710;2023-09-07T06:24:29;22.23;;;16.15;;
45338;SDS011;31071;51.478;5.710;2023-09-07T06:26:55;23.52;;;15.80;;
45338;SDS011;31071;51.478;5.710;2023-09-07T06:29:21;20.42;;;16.10;;
45338;SDS011;31071;51.478;5.710;2023-09-07T06:31:47;21.95;;;16.05;;
45338;SDS011;31071;51.478;5.710;2023-09-07T06:34:15;24.20;;;15.60;;
45338;SDS011;31071;51.478;5.710;2023-09-07T06:36:40;25.15;;;17.25;;
45338;SDS011;31071;51.478;5.710;2023-09-07T06:39:06;20.48;;;16.05;;
45338;SDS011;31071;51.478;5.710;2023-09-07T06:41:31;19.27;;;16.25;;
45338;SDS011;31071;51.478;5.710;2023-09-07T06:43:57;21.38;;;16.35;;
45338;SDS011;31071;51.478;5.710;2023-09-07T06:46:24;21.77;;;16.13;;
45338;SDS011;31071;51.478;5.710;2023-09-07T06:48:49;19.35;;;17.20;;
45338;SDS011;31071;51.478;5.710;2023-09-07T06:51:15;24.27;;;17.17;;
45338;SDS011;31071;51.478;5.710;2023-09-07T06:53:40;22.35;;;16.60;;
45338;SDS011;31071;51.478;5.710;2023-09-07T06:56:06;24.30;;;16.02;;
45338;SDS011;31071;51.478;5.710;2023-09-07T06:58:32;22.30;;;16.88;;
45338;SDS011;31071;51.478;5.710;2023-09-07T07:00:59;21.20;;;15.65;;
45338;SDS011;31071;51.478;5.710;2023-09-07T07:03:26;18.73;;;14.32;;
45338;SDS011;31071;51.478;5.710;2023-09-07T07:05:52;20.60;;;14.77;;
45338;SDS011;31071;51.478;5.710;2023-09-07T07:08:18;19.85;;;15.05;;
45338;SDS011;31071;51.478;5.710;2023-09-07T07:10:43;18.52;;;15.13;;
45338;SDS011;31071;51.478;5.710;2023-09-07T07:13:09;19.80;;;15.40;;
45338;SDS011;31071;51.478;5.710;2023-09-07T07:15:35;21.15;;;14.75;;
45338;SDS011;31071;51.478;5.710;2023-09-07T07:18:01;19.23;;;14.18;;
45338;SDS011;31071;51.478;5.710;2023-09-07T07:20:39;19.48;;;14.50;;
45338;SDS011;31071;51.478;5.710;2023-09-07T07:23:06;19.75;;;14.13;;
45338;SDS011;31071;51.478;5.710;2023-09-07T07:25:40;15.23;;;12.55;;
45338;SDS011;31071;51.478;5.710;2023-09-07T07:28:06;18.23;;;13.82;;
45338;SDS011;31071;51.478;5.710;2023-09-07T07:30:35;17.48;;;13.05;;
45338;SDS011;31071;51.478;5.710;2023-09-07T07:35:31;16.13;;;11.50;;
45338;SDS011;31071;51.478;5.710;2023-09-07T07:37:57;15.20;;;11.75;;
45338;SDS011;31071;51.478;5.710;2023-09-07T07:40:23;15.43;;;11.55;;
45338;SDS011;31071;51.478;5.710;2023-09-07T07:42:51;16.42;;;12.02;;
45338;SDS011;31071;51.478;5.710;2023-09-07T07:45:17;15.73;;;11.98;;
45338;SDS011;31071;51.478;5.710;2023-09-07T07:47:46;16.77;;;11.60;;
45338;SDS011;31071;51.478;5.710;2023-09-07T07:50:15;13.77;;;10.82;;
45338;SDS011;31071;51.478;5.710;2023-09-07T07:52:41;16.05;;;10.70;;
45338;SDS011;31071;51.478;5.710;2023-09-07T07:55:07;12.95;;;9.80;;
45338;SDS011;31071;51.478;5.710;2023-09-07T07:57:34;14.32;;;9.70;;
45338;SDS011;31071;51.478;5.710;2023-09-07T07:59:59;13.68;;;9.15;;
45338;SDS011;31071;51.478;5.710;2023-09-07T08:02:25;14.27;;;9.38;;
45338;SDS011;31071;51.478;5.710;2023-09-07T08:04:50;10.68;;;8.77;;
45338;SDS011;31071;51.478;5.710;2023-09-07T08:07:16;11.95;;;8.05;;
45338;SDS011;31071;51.478;5.710;2023-09-07T08:09:42;14.20;;;8.55;;
45338;SDS011;31071;51.478;5.710;2023-09-07T08:12:08;12.23;;;7.78;;
45338;SDS011;31071;51.478;5.710;2023-09-07T08:14:33;11.35;;;8.02;;
45338;SDS011;31071;51.478;5.710;2023-09-07T08:17:00;10.93;;;7.68;;
45338;SDS011;31071;51.478;5.710;2023-09-07T08:19:26;11.07;;;7.22;;
45338;SDS011;31071;51.478;5.710;2023-09-07T08:21:56;9.45;;;6.70;;
45338;SDS011;31071;51.478;5.710;2023-09-07T08:24:23;10.43;;;6.63;;
45338;SDS011;31071;51.478;5.710;2023-09-07T08:26:48;9.48;;;6.63;;
45338;SDS011;31071;51.478;5.710;2023-09-07T08:29:16;9.82;;;6.97;;
45338;SDS011;31071;51.478;5.710;2023-09-07T08:31:45;9.32;;;6.65;;
45338;SDS011;31071;51.478;5.710;2023-09-07T08:34:12;9.55;;;7.10;;
45338;SDS011;31071;51.478;5.710;2023-09-07T08:36:39;9.38;;;6.50;;
45338;SDS011;31071;51.478;5.710;2023-09-07T08:39:05;10.32;;;6.15;;
45338;SDS011;31071;51.478;5.710;2023-09-07T08:41:39;9.13;;;6.35;;
45338;SDS011;31071;51.478;5.710;2023-09-07T08:44:09;8.13;;;6.22;;
45338;SDS011;31071;51.478;5.710;2023-09-07T08:46:36;8.52;;;5.65;;
45338;SDS011;31071;51.478;5.710;2023-09-07T08:49:03;7.75;;;6.22;;
45338;SDS011;31071;51.478;5.710;2023-09-07T08:51:29;10.05;;;6.03;;
45338;SDS011;31071;51.478;5.710;2023-09-07T08:53:56;6.55;;;5.88;;
45338;SDS011;31071;51.478;5.710;2023-09-07T08:56:25;8.27;;;5.38;;
45338;SDS011;31071;51.478;5.710;2023-09-07T08:58:51;11.25;;;6.03;;
45338;SDS011;31071;51.478;5.710;2023-09-07T09:01:17;6.45;;;5.80;;
45338;SDS011;31071;51.478;5.710;2023-09-07T09:03:43;9.23;;;5.40;;
45338;SDS011;31071;51.478;5.710;2023-09-07T09:06:10;9.70;;;5.72;;
45338;SDS011;31071;51.478;5.710;2023-09-07T09:11:09;9.13;;;6.03;;
45338;SDS011;31071;51.478;5.710;2023-09-07T09:13:35;10.88;;;6.07;;
45338;SDS011;31071;51.478;5.710;2023-09-07T09:16:01;8.20;;;5.15;;
45338;SDS011;31071;51.478;5.710;2023-09-07T09:18:27;7.47;;;5.32;;
45338;SDS011;31071;51.478;5.710;2023-09-07T09:20:55;5.68;;;5.18;;
45338;SDS011;31071;51.478;5.710;2023-09-07T09:23:21;6.18;;;5.25;;
45338;SDS011;31071;51.478;5.710;2023-09-07T09:25:50;9.48;;;5.75;;
45338;SDS011;31071;51.478;5.710;2023-09-07T09:28:16;6.47;;;5.07;;
45338;SDS011;31071;51.478;5.710;2023-09-07T09:30:41;9.95;;;5.53;;
45338;SDS011;31071;51.478;5.710;2023-09-07T09:33:10;6.90;;;5.40;;
45338;SDS011;31071;51.478;5.710;2023-09-07T09:35:36;5.68;;;4.80;;
45338;SDS011;31071;51.478;5.710;2023-09-07T09:38:03;5.80;;;5.07;;
45338;SDS011;31071;51.478;5.710;2023-09-07T09:40:29;6.45;;;5.65;;
45338;SDS011;31071;51.478;5.710;2023-09-07T09:43:02;5.95;;;5.15;;
45338;SDS011;31071;51.478;5.710;2023-09-07T09:45:28;6.35;;;4.90;;
45338;SDS011;31071;51.478;5.710;2023-09-07T09:47:55;5.45;;;4.60;;
45338;SDS011;31071;51.478;5.710;2023-09-07T09:50:23;6.97;;;5.07;;
45338;SDS011;31071;51.478;5.710;2023-09-07T09:52:49;8.45;;;5.35;;
45338;SDS011;31071;51.478;5.710;2023-09-07T09:55:18;8.15;;;5.60;;
45338;SDS011;31071;51.478;5.710;2023-09-07T09:57:43;6.90;;;4.75;;
45338;SDS011;31071;51.478;5.710;2023-09-07T10:00:09;9.50;;;5.20;;
45338;SDS011;31071;51.478;5.710;2023-09-07T10:02:48;6.70;;;5.20;;
45338;SDS011;31071;51.478;5.710;2023-09-07T10:05:17;6.75;;;5.25;;
45338;SDS011;31071;51.478;5.710;2023-09-07T10:07:44;5.78;;;4.60;;
45338;SDS011;31071;51.478;5.710;2023-09-07T10:10:13;5.53;;;5.03;;
45338;SDS011;31071;51.478;5.710;2023-09-07T10:12:40;7.55;;;5.18;;
45338;SDS011;31071;51.478;5.710;2023-09-07T10:15:07;6.57;;;5.97;;
45338;SDS011;31071;51.478;5.710;2023-09-07T10:17:44;9.35;;;5.63;;
45338;SDS011;31071;51.478;5.710;2023-09-07T10:20:11;8.13;;;4.82;;
45338;SDS011;31071;51.478;5.710;2023-09-07T10:22:37;8.57;;;5.80;;
45338;SDS011;31071;51.478;5.710;2023-09-07T10:25:03;6.85;;;4.82;;
45338;SDS011;31071;51.478;5.710;2023-09-07T10:27:36;8.80;;;5.35;;
45338;SDS011;31071;51.478;5.710;2023-09-07T10:30:02;9.43;;;5.03;;
45338;SDS011;31071;51.478;5.710;2023-09-07T10:35:12;9.32;;;5.60;;
45338;SDS011;31071;51.478;5.710;2023-09-07T10:40:04;8.02;;;5.32;;
45338;SDS011;31071;51.478;5.710;2023-09-07T10:42:34;6.78;;;5.18;;
45338;SDS011;31071;51.478;5.710;2023-09-07T10:45:08;8.27;;;4.47;;
45338;SDS011;31071;51.478;5.710;2023-09-07T10:47:44;5.38;;;4.97;;
45338;SDS011;31071;51.478;5.710;2023-09-07T10:50:13;5.88;;;5.28;;
45338;SDS011;31071;51.478;5.710;2023-09-07T10:52:42;6.47;;;5.32;;
45338;SDS011;31071;51.478;5.710;2023-09-07T10:55:08;8.02;;;5.38;;
45338;SDS011;31071;51.478;5.710;2023-09-07T10:57:45;5.88;;;5.10;;
45338;SDS011;31071;51.478;5.710;2023-09-07T11:00:12;9.85;;;5.32;;
45338;SDS011;31071;51.478;5.710;2023-09-07T11:02:39;5.68;;;5.03;;
45338;SDS011;31071;51.478;5.710;2023-09-07T11:05:07;16.85;;;6.38;;
45338;SDS011;31071;51.478;5.710;2023-09-07T11:07:34;11.45;;;5.00;;
45338;SDS011;31071;51.478;5.710;2023-09-07T11:10:01;6.65;;;5.10;;
45338;SDS011;31071;51.478;5.710;2023-09-07T11:12:29;6.82;;;4.97;;
45338;SDS011;31071;51.478;5.710;2023-09-07T11:15:00;6.13;;;5.00;;
45338;SDS011;31071;51.478;5.710;2023-09-07T11:17:26;9.32;;;4.95;;
45338;SDS011;31071;51.478;5.710;2023-09-07T11:19:53;6.28;;;5.63;;
45338;SDS011;31071;51.478;5.710;2023-09-07T11:22:19;9.77;;;5.40;;
45338;SDS011;31071;51.478;5.710;2023-09-07T11:24:44;8.15;;;5.28;;
45338;SDS011;31071;51.478;5.710;2023-09-07T11:27:11;6.40;;;5.05;;
45338;SDS011;31071;51.478;5.710;2023-09-07T11:29:36;6.20;;;5.60;;
45338;SDS011;31071;51.478;5.710;2023-09-07T11:32:06;8.48;;;5.22;;
45338;SDS011;31071;51.478;5.710;2023-09-07T11:34:32;9.60;;;5.88;;
45338;SDS011;31071;51.478;5.710;2023-09-07T11:36:58;11.52;;;6.93;;
45338;SDS011;31071;51.478;5.710;2023-09-07T11:39:23;6.55;;;5.95;;
45338;SDS011;31071;51.478;5.710;2023-09-07T11:41:49;9.23;;;5.70;;
45338;SDS011;31071;51.478;5.710;2023-09-07T11:44:14;11.18;;;5.78;;
45338;SDS011;31071;51.478;5.710;2023-09-07T11:46:40;7.45;;;6.20;;
45338;SDS011;31071;51.478;5.710;2023-09-07T11:49:05;7.43;;;5.95;;
45338;SDS011;31071;51.478;5.710;2023-09-07T11:51:31;6.57;;;5.82;;
45338;SDS011;31071;51.478;5.710;2023-09-07T11:53:57;8.85;;;6.15;;
45338;SDS011;31071;51.478;5.710;2023-09-07T11:56:22;5.97;;;5.45;;
45338;SDS011;31071;51.478;5.710;2023-09-07T11:58:48;6.18;;;5.60;;
45338;SDS011;31071;51.478;5.710;2023-09-07T12:01:14;9.07;;;6.03;;
45338;SDS011;31071;51.478;5.710;2023-09-07T12:03:41;5.95;;;5.35;;
45338;SDS011;31071;51.478;5.710;2023-09-07T12:06:08;7.95;;;5.70;;
45338;SDS011;31071;51.478;5.710;2023-09-07T12:08:34;8.15;;;5.78;;
45338;SDS011;31071;51.478;5.710;2023-09-07T12:11:00;8.80;;;5.78;;
45338;SDS011;31071;51.478;5.710;2023-09-07T12:13:25;7.00;;;5.63;;
45338;SDS011;31071;51.478;5.710;2023-09-07T12:15:51;6.28;;;5.68;;
45338;SDS011;31071;51.478;5.710;2023-09-07T12:18:17;7.70;;;5.40;;
45338;SDS011;31071;51.478;5.710;2023-09-07T12:20:42;5.75;;;5.25;;
45338;SDS011;31071;51.478;5.710;2023-09-07T12:23:09;5.47;;;4.97;;
45338;SDS011;31071;51.478;5.710;2023-09-07T12:25:35;5.70;;;5.20;;
45338;SDS011;31071;51.478;5.710;2023-09-07T12:28:02;5.63;;;4.95;;
45338;SDS011;31071;51.478;5.710;2023-09-07T12:30:28;6.45;;;5.75;;
45338;SDS011;31071;51.478;5.710;2023-09-07T12:32:54;6.60;;;5.20;;
45338;SDS011;31071;51.478;5.710;2023-09-07T12:35:19;7.90;;;4.78;;
45338;SDS011;31071;51.478;5.710;2023-09-07T12:37:45;5.60;;;5.10;;
45338;SDS011;31071;51.478;5.710;2023-09-07T12:40:11;6.15;;;5.55;;
45338;SDS011;31071;51.478;5.710;2023-09-07T12:42:40;10.95;;;5.70;;
45338;SDS011;31071;51.478;5.710;2023-09-07T12:45:08;7.35;;;5.53;;
45338;SDS011;31071;51.478;5.710;2023-09-07T12:47:34;9.75;;;5.70;;
45338;SDS011;31071;51.478;5.710;2023-09-07T12:49:59;6.57;;;5.45;;
45338;SDS011;31071;51.478;5.710;2023-09-07T12:52:25;6.32;;;5.22;;
45338;SDS011;31071;51.478;5.710;2023-09-07T12:54:51;5.95;;;5.35;;
45338;SDS011;31071;51.478;5.710;2023-09-07T12:57:16;7.22;;;5.78;;
45338;SDS011;31071;51.478;5.710;2023-09-07T12:59:42;5.95;;;5.00;;
45338;SDS011;31071;51.478;5.710;2023-09-07T13:02:07;5.72;;;5.22;;
45338;SDS011;31071;51.478;5.710;2023-09-07T13:04:33;6.78;;;5.13;;
45338;SDS011;31071;51.478;5.710;2023-09-07T13:06:59;5.15;;;4.70;;
45338;SDS011;31071;51.478;5.710;2023-09-07T13:09:26;5.82;;;5.30;;
45338;SDS011;31071;51.478;5.710;2023-09-07T13:11:51;5.95;;;5.13;;
45338;SDS011;31071;51.478;5.710;2023-09-07T13:14:17;5.00;;;4.53;;
45338;SDS011;31071;51.478;5.710;2023-09-07T13:16:42;5.70;;;4.97;;
45338;SDS011;31071;51.478;5.710;2023-09-07T13:19:09;6.50;;;4.90;;
45338;SDS011;31071;51.478;5.710;2023-09-07T13:21:36;5.93;;;4.88;;
45338;SDS011;31071;51.478;5.710;2023-09-07T13:24:01;6.55;;;5.05;;
45338;SDS011;31071;51.478;5.710;2023-09-07T13:26:28;8.65;;;5.38;;
45338;SDS011;31071;51.478;5.710;2023-09-07T13:28:53;9.50;;;5.32;;
45338;SDS011;31071;51.478;5.710;2023-09-07T13:31:19;7.35;;;5.00;;
45338;SDS011;31071;51.478;5.710;2023-09-07T13:33:44;6.38;;;4.97;;
45338;SDS011;31071;51.478;5.710;2023-09-07T13:36:10;5.45;;;4.85;;
45338;SDS011;31071;51.478;5.710;2023-09-07T13:38:36;7.47;;;5.25;;
45338;SDS011;31071;51.478;5.710;2023-09-07T13:41:02;6.30;;;5.57;;
45338;SDS011;31071;51.478;5.710;2023-09-07T13:43:27;5.43;;;5.00;;
45338;SDS011;31071;51.478;5.710;2023-09-07T13:45:53;6.03;;;5.15;;
45338;SDS011;31071;51.478;5.710;2023-09-07T13:48:19;5.57;;;4.80;;
45338;SDS011;31071;51.478;5.710;2023-09-07T13:50:44;5.78;;;5.18;;
45338;SDS011;31071;51.478;5.710;2023-09-07T13:53:10;5.78;;;5.20;;
45338;SDS011;31071;51.478;5.710;2023-09-07T13:55:37;5.88;;;5.32;;
45338;SDS011;31071;51.478;5.710;2023-09-07T13:58:05;5.43;;;5.00;;
45338;SDS011;31071;51.478;5.710;2023-09-07T14:00:31;5.57;;;4.90;;
45338;SDS011;31071;51.478;5.710;2023-09-07T14:02:56;5.50;;;5.00;;
45338;SDS011;31071;51.478;5.710;2023-09-07T14:05:22;5.40;;;4.82;;
45338;SDS011;31071;51.478;5.710;2023-09-07T14:07:48;5.68;;;5.03;;
45338;SDS011;31071;51.478;5.710;2023-09-07T14:10:13;6.05;;;5.00;;
45338;SDS011;31071;51.478;5.710;2023-09-07T14:12:39;5.32;;;4.82;;
45338;SDS011;31071;51.478;5.710;2023-09-07T14:15:05;7.35;;;5.28;;
45338;SDS011;31071;51.478;5.710;2023-09-07T14:17:34;7.15;;;4.82;;
45338;SDS011;31071;51.478;5.710;2023-09-07T14:20:00;5.80;;;5.28;;
45338;SDS011;31071;51.478;5.710;2023-09-07T14:22:26;6.43;;;5.13;;
45338;SDS011;31071;51.478;5.710;2023-09-07T14:24:51;5.30;;;4.80;;
45338;SDS011;31071;51.478;5.710;2023-09-07T14:27:17;6.00;;;4.82;;
45338;SDS011;31071;51.478;5.710;2023-09-07T14:29:43;5.80;;;5.30;;
45338;SDS011;31071;51.478;5.710;2023-09-07T14:32:08;6.63;;;5.38;;
45338;SDS011;31071;51.478;5.710;2023-09-07T14:34:34;5.93;;;5.13;;
45338;SDS011;31071;51.478;5.710;2023-09-07T14:37:01;7.00;;;5.28;;
45338;SDS011;31071;51.478;5.710;2023-09-07T14:39:27;5.50;;;4.85;;
45338;SDS011;31071;51.478;5.710;2023-09-07T14:41:53;7.03;;;5.32;;